Time;durP1;ratioP1;P1;durP2;ratioP2;P2;SDS_P1;SDS_P2;PMS_P1;PMS_P2;Temp;Humidity;BMP_temperature;BMP_pressure;BME280_temperature;BME280_humidity;BME280_pressure;Samples;Min_cycle;Max_cycle;Signal;HPM_P1;HPM_P2
2023/05/07 00:01:33;;;;;;;6.38;3.42;;;15.20;82.50;;;;;;4892527;29;20027;-86
2023/05/07 00:03:58;;;;;;;7.40;3.45;;;15.20;82.50;;;;;;4891083;29;20024;-87
2023/05/07 00:06:24;;;;;;;6.88;3.60;;;15.20;82.40;;;;;;4891552;29;20025;-86
2023/05/07 00:08:49;;;;;;;7.07;3.67;;;15.20;82.50;;;;;;4891318;29;20036;-86
2023/05/07 00:11:15;;;;;;;6.43;3.40;;;15.20;82.50;;;;;;4890872;29;20020;-87
2023/05/07 00:13:40;;;;;;;6.85;4.13;;;15.20;82.50;;;;;;4890450;29;20071;-87
2023/05/07 00:16:06;;;;;;;6.72;3.67;;;15.20;82.50;;;;;;4909251;29;20036;-84
2023/05/07 00:18:31;;;;;;;7.22;3.72;;;15.20;82.50;;;;;;4893597;29;20035;-85
2023/05/07 00:20:57;;;;;;;6.63;3.78;;;15.20;82.50;;;;;;4911906;29;20047;-85
2023/05/07 00:23:23;;;;;;;7.18;3.95;;;15.20;82.50;;;;;;4910254;29;20040;-86
2023/05/07 00:25:48;;;;;;;8.05;4.20;;;15.20;82.50;;;;;;4910412;29;20024;-85
2023/05/07 00:28:14;;;;;;;8.00;4.28;;;15.20;82.50;;;;;;4909151;29;20095;-86
2023/05/07 00:30:39;;;;;;;7.03;4.20;;;15.20;82.50;;;;;;4910267;29;20051;-85
2023/05/07 00:33:05;;;;;;;6.78;3.83;;;15.20;82.50;;;;;;4908522;29;20485;-85
2023/05/07 00:35:30;;;;;;;6.57;3.92;;;15.20;82.50;;;;;;4909315;29;20028;-83
2023/05/07 00:37:56;;;;;;;8.63;4.00;;;15.20;82.50;;;;;;4909174;29;20568;-87
2023/05/07 00:40:22;;;;;;;8.10;3.88;;;15.20;82.50;;;;;;4907170;29;20047;-87
2023/05/07 00:42:48;;;;;;;7.30;4.10;;;15.20;82.50;;;;;;4906341;29;20036;-86
2023/05/07 00:45:14;;;;;;;6.38;3.75;;;15.20;82.50;;;;;;4906110;29;20523;-85
2023/05/07 00:47:41;;;;;;;6.07;3.75;;;15.20;82.50;;;;;;4923604;29;20032;-85
2023/05/07 00:50:07;;;;;;;6.85;4.00;;;15.20;82.50;;;;;;4906004;29;20027;-87
2023/05/07 00:52:33;;;;;;;7.97;3.90;;;15.20;82.50;;;;;;4912742;29;20028;-87
2023/05/07 00:55:05;;;;;;;6.63;3.83;;;15.20;82.50;;;;;;4911473;29;20385;-85
2023/05/07 00:57:32;;;;;;;;;;;15.20;82.50;;;;;;4912657;29;20091;-84
2023/05/07 00:59:57;;;;;;;7.47;4.10;;;15.20;82.50;;;;;;4912243;29;19918;-87
2023/05/07 01:02:23;;;;;;;6.97;4.07;;;15.20;82.50;;;;;;4912078;29;20378;-85
2023/05/07 01:04:48;;;;;;;8.07;4.13;;;15.20;82.50;;;;;;4910384;29;20035;-84
2023/05/07 01:07:14;;;;;;;6.53;4.18;;;15.20;82.50;;;;;;4910813;29;20083;-85
2023/05/07 01:09:40;;;;;;;6.97;4.43;;;15.20;82.50;;;;;;4908835;29;20025;-88
2023/05/07 01:12:07;;;;;;;7.65;4.60;;;15.20;82.50;;;;;;4907580;29;20043;-85
2023/05/07 01:14:33;;;;;;;6.68;4.20;;;15.20;82.40;;;;;;4908298;29;20505;-84
2023/05/07 01:16:58;;;;;;;7.35;4.40;;;15.20;82.50;;;;;;4904698;29;20039;-85
2023/05/07 01:19:24;;;;;;;6.95;4.18;;;15.20;82.50;;;;;;4899523;29;20390;-85
2023/05/07 01:21:51;;;;;;;7.00;4.30;;;15.20;82.50;;;;;;4905520;29;20020;-86
2023/05/07 01:24:17;;;;;;;7.95;4.82;;;15.20;82.50;;;;;;4906108;29;20028;-85
2023/05/07 01:26:44;;;;;;;8.10;4.40;;;15.20;82.50;;;;;;4906662;29;20031;-86
2023/05/07 01:29:09;;;;;;;6.90;4.18;;;15.20;82.50;;;;;;4904288;29;20032;-88
2023/05/07 01:31:37;;;;;;;7.50;4.35;;;15.20;82.50;;;;;;4900961;29;20031;-85
2023/05/07 01:34:04;;;;;;;7.05;4.63;;;15.20;82.50;;;;;;4900269;29;20489;-85
2023/05/07 01:36:31;;;;;;;7.00;4.47;;;15.20;82.50;;;;;;4899467;29;20092;-85
2023/05/07 01:38:58;;;;;;;7.65;4.45;;;15.20;82.90;;;;;;4899849;29;20028;-84
2023/05/07 01:41:24;;;;;;;6.57;4.18;;;15.20;82.40;;;;;;4902312;29;20625;-85
2023/05/07 01:43:51;;;;;;;7.28;4.43;;;15.20;82.50;;;;;;4905902;29;20621;-84
2023/05/07 01:46:18;;;;;;;7.90;5.00;;;15.20;82.50;;;;;;4906397;29;20037;-85
2023/05/07 01:48:45;;;;;;;7.68;4.55;;;15.20;82.50;;;;;;4905598;29;20476;-85
2023/05/07 01:51:11;;;;;;;8.18;4.40;;;15.20;82.50;;;;;;4904784;29;20092;-88
2023/05/07 01:53:38;;;;;;;8.10;5.00;;;15.20;82.50;;;;;;4904960;29;20028;-89
2023/05/07 01:56:04;;;;;;;6.78;4.43;;;15.20;82.40;;;;;;4901557;29;20035;-85
2023/05/07 01:58:29;;;;;;;7.38;4.53;;;15.20;82.40;;;;;;4899382;29;20032;-85
2023/05/07 02:00:55;;;;;;;7.45;4.70;;;15.20;82.40;;;;;;4899341;29;20032;-85
2023/05/07 02:03:20;;;;;;;7.25;4.45;;;15.20;82.40;;;;;;4903578;29;20115;-86
2023/05/07 02:05:46;;;;;;;8.73;4.97;;;15.20;82.40;;;;;;4903284;29;20048;-85
2023/05/07 02:08:11;;;;;;;7.22;4.43;;;15.20;82.40;;;;;;4903577;29;20025;-85
2023/05/07 02:10:37;;;;;;;7.55;4.85;;;15.20;82.40;;;;;;4920622;29;20189;-85
2023/05/07 02:13:02;;;;;;;7.65;4.78;;;15.20;82.40;;;;;;4903030;29;20024;-86
2023/05/07 02:15:28;;;;;;;7.53;4.60;;;15.20;82.40;;;;;;4901664;29;20036;-86
2023/05/07 02:18:07;;;;;;;7.32;4.53;;;15.20;82.40;;;;;;4899046;29;20071;-87
2023/05/07 02:20:33;;;;;;;7.85;5.00;;;15.20;82.40;;;;;;4901354;29;20032;-88
2023/05/07 02:22:58;;;;;;;7.90;5.28;;;15.20;82.40;;;;;;4901119;29;20047;-87
2023/05/07 02:25:24;;;;;;;6.68;4.57;;;15.20;82.40;;;;;;4900943;29;20020;-85
2023/05/07 02:27:50;;;;;;;7.40;4.47;;;15.20;82.40;;;;;;4901351;29;20020;-87
2023/05/07 02:30:15;;;;;;;7.88;4.85;;;15.20;82.40;;;;;;4900708;29;20032;-86
2023/05/07 02:32:41;;;;;;;7.65;5.05;;;15.20;82.40;;;;;;4917829;29;20056;-85
2023/05/07 02:35:06;;;;;;;8.27;5.20;;;15.20;82.40;;;;;;4901002;29;20481;-85
2023/05/07 02:37:32;;;;;;;7.50;4.88;;;15.20;82.40;;;;;;4901480;29;20028;-85
2023/05/07 02:39:57;;;;;;;8.05;5.13;;;15.20;82.40;;;;;;4901090;29;20039;-86
2023/05/07 02:42:23;;;;;;;7.10;4.88;;;15.20;82.40;;;;;;4916009;29;20032;-83
2023/05/07 02:44:48;;;;;;;8.25;5.75;;;15.20;82.40;;;;;;4916330;29;20020;-87
2023/05/07 02:47:15;;;;;;;7.78;5.00;;;15.20;82.40;;;;;;4899741;29;20032;-87
2023/05/07 02:49:41;;;;;;;7.82;5.03;;;15.20;82.40;;;;;;4896548;29;20111;-82
2023/05/07 02:52:06;;;;;;;7.90;5.32;;;15.20;82.40;;;;;;4900967;29;20541;-86
2023/05/07 02:54:32;;;;;;;9.88;5.80;;;15.20;82.40;;;;;;4919865;29;20024;-85
2023/05/07 02:56:57;;;;;;;6.88;5.00;;;15.20;82.40;;;;;;4919497;29;20032;-85
2023/05/07 02:59:26;;;;;;;7.78;5.47;;;15.20;82.40;;;;;;4917733;29;20024;-85
2023/05/07 03:01:51;;;;;;;8.27;5.07;;;15.10;82.40;;;;;;4917662;29;20025;-85
2023/05/07 03:04:17;;;;;;;8.07;5.40;;;15.20;82.40;;;;;;4918395;29;20086;-84
2023/05/07 03:06:42;;;;;;;7.25;5.00;;;15.20;82.40;;;;;;4918642;29;20464;-84
2023/05/07 03:09:08;;;;;;;7.80;5.38;;;15.20;82.40;;;;;;4918115;29;20513;-86
2023/05/07 03:11:35;;;;;;;8.45;5.47;;;15.10;82.30;;;;;;4917382;29;20031;-87
2023/05/07 03:14:01;;;;;;;8.85;5.57;;;15.20;82.40;;;;;;4917432;29;20382;-85
2023/05/07 03:16:26;;;;;;;8.10;5.43;;;15.10;82.30;;;;;;4919366;29;20032;-85
2023/05/07 03:18:52;;;;;;;7.60;5.45;;;15.20;82.40;;;;;;4917762;29;20119;-87
2023/05/07 03:21:18;;;;;;;8.93;6.05;;;15.20;82.40;;;;;;4917605;29;20525;-84
2023/05/07 03:23:43;;;;;;;8.13;5.68;;;15.20;82.40;;;;;;4917173;29;20492;-85
2023/05/07 03:26:09;;;;;;;7.93;5.78;;;15.20;82.40;;;;;;4906295;29;20016;-87
2023/05/07 03:28:34;;;;;;;8.23;5.85;;;15.20;82.40;;;;;;4912051;29;20075;-88
2023/05/07 03:31:00;;;;;;;8.52;5.78;;;15.20;82.40;;;;;;4910578;29;20044;-87
2023/05/07 03:33:27;;;;;;;8.05;5.65;;;15.20;82.40;;;;;;4926463;29;20032;-86
2023/05/07 03:35:52;;;;;;;8.32;5.13;;;15.20;82.40;;;;;;4909532;29;20055;-87
2023/05/07 03:38:18;;;;;;;8.30;5.63;;;15.20;82.40;;;;;;4913525;29;20091;-85
2023/05/07 03:40:43;;;;;;;9.50;5.80;;;15.10;82.30;;;;;;4914067;29;20456;-85
2023/05/07 03:43:09;;;;;;;7.85;5.70;;;15.20;82.40;;;;;;4913990;29;20028;-85
2023/05/07 03:45:35;;;;;;;7.97;5.70;;;15.10;82.30;;;;;;4913487;29;20491;-86
2023/05/07 03:48:00;;;;;;;8.73;5.43;;;15.20;82.40;;;;;;4912921;29;20396;-86
2023/05/07 03:50:26;;;;;;;8.02;5.72;;;15.20;82.40;;;;;;4902933;29;20118;-86
2023/05/07 03:52:51;;;;;;;8.15;6.03;;;15.10;82.30;;;;;;4907335;29;20039;-87
2023/05/07 03:55:17;;;;;;;7.97;5.72;;;15.20;82.40;;;;;;4911445;29;20024;-87
2023/05/07 03:57:43;;;;;;;9.63;6.07;;;15.20;82.40;;;;;;4911024;29;20028;-86
2023/05/07 04:00:09;;;;;;;8.18;5.47;;;15.20;82.30;;;;;;4904717;29;20388;-87
2023/05/07 04:02:34;;;;;;;7.95;5.22;;;15.10;82.30;;;;;;4902639;29;20032;-87
2023/05/07 04:05:00;;;;;;;8.18;5.90;;;15.20;82.40;;;;;;4908764;29;20171;-86
2023/05/07 04:07:25;;;;;;;9.15;5.80;;;15.20;82.30;;;;;;4908588;29;20111;-88
2023/05/07 04:09:51;;;;;;;9.50;5.95;;;15.20;82.40;;;;;;4908511;29;20495;-86
2023/05/07 04:12:16;;;;;;;8.75;6.18;;;15.20;82.30;;;;;;4907905;29;20059;-85
2023/05/07 04:14:42;;;;;;;8.82;6.15;;;15.20;82.30;;;;;;4905521;29;20024;-85
2023/05/07 04:17:09;;;;;;;8.30;6.00;;;15.20;82.40;;;;;;4927420;29;20032;-88
2023/05/07 04:19:35;;;;;;;8.52;5.80;;;15.20;82.30;;;;;;4915090;29;20063;-88
2023/05/07 04:22:00;;;;;;;8.57;6.38;;;15.20;82.30;;;;;;4912882;29;20028;-88
2023/05/07 04:24:26;;;;;;;8.77;6.13;;;15.20;82.30;;;;;;4912760;29;20052;-90
2023/05/07 04:26:52;;;;;;;9.50;6.82;;;15.20;82.30;;;;;;4912233;29;20386;-87
2023/05/07 04:29:18;;;;;;;10.20;6.32;;;15.00;82.20;;;;;;4912996;29;20024;-87
2023/05/07 04:31:44;;;;;;;8.27;6.28;;;15.20;82.30;;;;;;4903159;29;20032;-85
2023/05/07 04:34:10;;;;;;;8.07;6.05;;;15.20;82.30;;;;;;4905104;29;20032;-85
2023/05/07 04:36:37;;;;;;;8.90;6.50;;;15.10;82.30;;;;;;4910014;29;20064;-85
2023/05/07 04:39:03;;;;;;;9.30;6.55;;;15.20;82.30;;;;;;4910856;29;20080;-87
2023/05/07 04:41:28;;;;;;;8.68;6.22;;;15.20;82.40;;;;;;4924325;29;20384;-85
2023/05/07 04:43:54;;;;;;;9.88;6.72;;;15.10;82.30;;;;;;4905782;29;20028;-85
2023/05/07 04:46:20;;;;;;;9.23;6.88;;;15.20;82.30;;;;;;4909798;29;20028;-84
2023/05/07 04:48:45;;;;;;;8.30;5.88;;;15.20;82.40;;;;;;4902529;29;20045;-86
2023/05/07 04:51:10;;;;;;;9.25;6.90;;;15.10;82.30;;;;;;4908993;29;20413;-84
2023/05/07 04:53:37;;;;;;;9.65;6.50;;;15.20;82.30;;;;;;4908148;29;20075;-84
2023/05/07 04:56:03;;;;;;;9.25;6.68;;;15.20;82.30;;;;;;4901325;29;20036;-85
2023/05/07 04:58:31;;;;;;;9.38;6.47;;;15.10;82.30;;;;;;4903553;29;20024;-88
2023/05/07 05:00:57;;;;;;;9.30;6.75;;;15.10;82.30;;;;;;4905430;29;20503;-88
2023/05/07 05:03:22;;;;;;;9.02;6.47;;;15.10;82.30;;;;;;4905511;29;20063;-87
2023/05/07 05:05:49;;;;;;;8.25;6.10;;;15.20;82.40;;;;;;4919565;29;20039;-84
2023/05/07 05:08:15;;;;;;;10.07;7.07;;;15.10;82.30;;;;;;4901378;29;20024;-84
2023/05/07 05:10:41;;;;;;;9.75;6.88;;;15.10;82.40;;;;;;4907872;29;20030;-85
2023/05/07 05:13:07;;;;;;;9.25;6.88;;;15.20;82.50;;;;;;4901262;29;20465;-84
2023/05/07 05:15:33;;;;;;;9.95;7.38;;;15.10;82.40;;;;;;4902554;29;20560;-88
2023/05/07 05:17:58;;;;;;;9.52;7.13;;;15.20;82.50;;;;;;4902932;29;20066;-86
2023/05/07 05:20:24;;;;;;;9.93;7.32;;;15.20;82.40;;;;;;4922061;29;20055;-85
2023/05/07 05:22:49;;;;;;;9.57;7.40;;;15.10;82.40;;;;;;4901605;29;20481;-85
2023/05/07 05:25:15;;;;;;;9.07;6.68;;;15.10;82.40;;;;;;4900527;29;20039;-84
2023/05/07 05:27:40;;;;;;;9.43;6.97;;;15.20;82.40;;;;;;4899516;29;20020;-84
2023/05/07 05:30:06;;;;;;;9.40;6.93;;;15.20;82.40;;;;;;4902384;29;20027;-87
2023/05/07 05:32:32;;;;;;;9.35;7.40;;;15.20;82.30;;;;;;4903126;29;20024;-85
2023/05/07 05:34:57;;;;;;;9.25;6.72;;;15.20;82.40;;;;;;4899178;29;20685;-84
2023/05/07 05:37:23;;;;;;;9.25;6.80;;;15.20;82.40;;;;;;4903002;29;20084;-84
2023/05/07 05:39:49;;;;;;;8.80;6.95;;;15.20;82.40;;;;;;4901880;29;20032;-85
2023/05/07 05:42:14;;;;;;;8.95;6.63;;;15.20;82.40;;;;;;4903914;29;20028;-84
2023/05/07 05:44:39;;;;;;;9.82;6.97;;;15.20;82.40;;;;;;4903477;29;20027;-84
2023/05/07 05:47:05;;;;;;;9.63;7.18;;;15.20;82.40;;;;;;4902830;29;20024;-84
2023/05/07 05:49:30;;;;;;;9.25;6.95;;;15.20;82.40;;;;;;4902819;29;20032;-83
2023/05/07 05:51:56;;;;;;;9.40;7.13;;;15.20;82.30;;;;;;4901904;29;20164;-85
2023/05/07 05:54:21;;;;;;;9.18;7.03;;;15.20;82.30;;;;;;4901033;29;20028;-86
2023/05/07 05:56:47;;;;;;;9.25;7.00;;;15.20;82.50;;;;;;4899499;29;20028;-85
2023/05/07 05:59:13;;;;;;;10.57;7.13;;;15.20;82.40;;;;;;4899090;29;20028;-85
2023/05/07 06:01:38;;;;;;;9.40;7.13;;;15.20;82.40;;;;;;4899454;29;20172;-86
2023/05/07 06:04:04;;;;;;;9.65;7.13;;;15.20;82.40;;;;;;4899096;29;20566;-86
2023/05/07 06:06:31;;;;;;;9.50;7.43;;;15.20;82.50;;;;;;4899319;29;20626;-86
2023/05/07 06:08:57;;;;;;;10.27;7.35;;;15.20;82.30;;;;;;4897903;29;20024;-82
2023/05/07 06:11:22;;;;;;;11.48;7.95;;;15.20;82.30;;;;;;4896547;29;20028;-81
2023/05/07 06:13:49;;;;;;;10.20;7.47;;;15.10;82.30;;;;;;4893016;29;20036;-84
2023/05/07 06:16:15;;;;;;;8.98;7.18;;;15.30;82.50;;;;;;4894101;29;20028;-82
2023/05/07 06:18:41;;;;;;;10.52;7.28;;;15.20;82.30;;;;;;4894146;29;20096;-84
2023/05/07 07:12:53;;;;;;;10.27;7.95;;;15.30;82.10;;;;;;4956444;29;20115;-84
2023/05/07 07:18:49;;;;;;;9.63;7.10;;;15.30;81.90;;;;;;4930995;29;19914;-85
2023/05/07 07:25:21;;;;;;;10.80;7.78;;;15.40;81.70;;;;;;4864322;29;20055;-82
2023/05/07 07:35:02;;;;;;;10.45;8.00;;;15.40;81.60;;;;;;4783592;29;20468;-80
2023/05/07 07:37:27;;;;;;;10.57;7.90;;;15.40;81.50;;;;;;4844844;29;20044;-81
2023/05/07 07:49:42;;;;;;;10.18;8.10;;;15.50;81.70;;;;;;4832473;29;20037;-82
2023/05/07 07:52:11;;;;;;;10.82;8.02;;;15.30;81.50;;;;;;4918273;29;20048;-82
2023/05/07 07:54:44;;;;;;;10.18;7.75;;;15.70;81.70;;;;;;4929333;29;20067;-80
2023/05/07 07:57:10;;;;;;;11.38;8.18;;;15.90;81.80;;;;;;4924508;29;20051;-82
2023/05/07 08:00:14;;;;;;;10.40;8.00;;;16.40;82.10;;;;;;4925237;29;20031;-80
2023/05/07 08:07:05;;;;;;;9.93;7.70;;;15.40;81.40;;;;;;4886037;29;20045;-82
2023/05/07 09:22:20;;;;;;;9.32;7.07;;;15.70;80.80;;;;;;4926181;23;20060;-81
2023/05/07 09:24:50;;;;;;;9.70;6.88;;;15.70;80.80;;;;;;4912921;29;20024;-81
2023/05/07 09:27:15;;;;;;;10.07;7.68;;;15.70;80.70;;;;;;4896798;29;20024;-81
2023/05/07 09:29:41;;;;;;;9.50;6.82;;;15.70;80.70;;;;;;4897125;29;20437;-81
2023/05/07 09:32:07;;;;;;;9.50;7.07;;;15.70;80.70;;;;;;4913242;29;20028;-83
2023/05/07 09:34:34;;;;;;;11.07;7.43;;;15.70;80.60;;;;;;4895633;29;20034;-81
2023/05/07 09:37:05;;;;;;;9.43;6.63;;;15.80;80.70;;;;;;4898753;29;20040;-82
2023/05/07 09:39:45;;;;;;;9.23;6.63;;;15.80;80.70;;;;;;4901014;29;20031;-82
2023/05/07 09:42:11;;;;;;;9.50;7.45;;;15.70;80.60;;;;;;4901235;29;20628;-83
2023/05/07 09:44:37;;;;;;;10.18;7.20;;;15.70;80.60;;;;;;4896530;29;20037;-80
2023/05/07 09:47:07;;;;;;;9.02;6.60;;;15.80;80.60;;;;;;4895110;29;20088;-80
2023/05/07 09:49:37;;;;;;;9.18;6.75;;;15.80;80.50;;;;;;4897229;29;20028;-81
2023/05/07 09:52:10;;;;;;;9.18;6.82;;;15.80;80.30;;;;;;4945987;23;20048;-82
2023/05/07 09:54:37;;;;;;;9.48;7.10;;;15.90;80.30;;;;;;4896902;29;20051;-84
2023/05/07 09:57:04;;;;;;;8.88;6.47;;;15.90;80.20;;;;;;4912393;29;20092;-81
2023/05/07 09:59:32;;;;;;;10.10;7.10;;;15.90;80.20;;;;;;4913387;29;20039;-81
2023/05/07 10:23:13;;;;;;;9.15;6.53;;;16.20;79.80;;;;;;4910950;29;20032;-83
2023/05/07 10:25:54;;;;;;;8.93;6.53;;;16.10;79.70;;;;;;4879639;29;20382;-79
2023/05/07 10:28:21;;;;;;;8.02;5.97;;;16.30;79.80;;;;;;4875069;29;20994;-83
2023/05/07 10:30:52;;;;;;;8.35;5.97;;;16.70;79.90;;;;;;4930901;29;20035;-82
2023/05/07 10:33:26;;;;;;;8.75;5.85;;;16.20;79.70;;;;;;4931452;29;20027;-82
2023/05/07 10:35:55;;;;;;;8.63;6.40;;;16.20;79.60;;;;;;4932494;29;20040;-86
2023/05/07 10:38:21;;;;;;;8.30;5.93;;;16.20;79.60;;;;;;4932019;29;20559;-83
2023/05/07 10:40:46;;;;;;;8.50;5.95;;;16.20;79.60;;;;;;4930422;29;20099;-83
2023/05/07 10:43:12;;;;;;;8.43;5.95;;;16.20;80.00;;;;;;4929825;29;20035;-82
2023/05/07 10:45:38;;;;;;;9.00;6.15;;;16.30;79.60;;;;;;4930310;29;20031;-81
2023/05/07 10:48:16;;;;;;;8.05;6.13;;;16.30;79.50;;;;;;4941547;29;20411;-83
2023/05/07 10:50:43;;;;;;;8.70;6.43;;;16.30;79.50;;;;;;4923610;29;20099;-82
2023/05/07 10:53:18;;;;;;;8.57;6.32;;;16.30;79.50;;;;;;4924657;29;20032;-83
2023/05/07 10:55:46;;;;;;;8.25;6.10;;;16.20;79.40;;;;;;4928526;29;20132;-80
2023/05/07 10:58:37;;;;;;;8.95;6.03;;;16.30;79.40;;;;;;4929218;29;20031;-82
2023/05/07 11:01:03;;;;;;;8.40;6.22;;;16.30;79.40;;;;;;4941924;29;20043;-84
2023/05/07 11:03:29;;;;;;;8.93;6.25;;;16.30;79.40;;;;;;4929523;29;20794;-82
2023/05/07 11:06:14;;;;;;;8.35;6.03;;;16.30;79.40;;;;;;4941656;29;20046;-84
2023/05/07 11:09:06;;;;;;;8.10;5.93;;;16.30;79.40;;;;;;4952876;29;20023;-84
2023/05/07 11:11:50;;;;;;;7.68;5.40;;;16.30;79.40;;;;;;4952326;29;20053;-85
2023/05/07 11:14:42;;;;;;;7.57;5.75;;;16.30;79.40;;;;;;4957752;29;20106;-83
2023/05/07 11:17:09;;;;;;;7.60;5.43;;;16.40;79.40;;;;;;4957031;29;20023;-86
2023/05/07 11:19:51;;;;;;;11.00;5.60;;;16.40;79.40;;;;;;4957428;29;20032;-84
2023/05/07 11:22:36;;;;;;;7.95;5.70;;;16.40;79.40;;;;;;4956754;29;20031;-84
2023/05/07 11:25:05;;;;;;;8.43;5.82;;;16.40;79.40;;;;;;4955976;29;20027;-83
2023/05/07 11:27:32;;;;;;;7.88;5.30;;;16.30;79.40;;;;;;4956200;29;20030;-83
2023/05/07 11:29:57;;;;;;;7.97;5.65;;;16.40;79.50;;;;;;4955487;29;20047;-83
2023/05/07 11:32:24;;;;;;;7.68;5.32;;;16.30;79.50;;;;;;4954577;29;20072;-83
2023/05/07 11:34:54;;;;;;;8.23;5.97;;;16.30;79.50;;;;;;4954704;29;20051;-82
2023/05/07 11:37:21;;;;;;;7.45;5.15;;;16.30;79.50;;;;;;4953916;29;20090;-82
2023/05/07 11:39:47;;;;;;;7.55;5.30;;;16.30;79.50;;;;;;4952633;29;20063;-83
2023/05/07 11:42:27;;;;;;;8.00;5.70;;;16.40;79.60;;;;;;4951109;29;20055;-83
2023/05/07 11:44:53;;;;;;;8.50;5.80;;;16.40;79.60;;;;;;4940088;29;20051;-84
2023/05/07 11:47:21;;;;;;;7.70;5.20;;;16.40;79.50;;;;;;4951477;28;20011;-83
2023/05/07 11:49:53;;;;;;;7.40;5.35;;;16.40;79.50;;;;;;4951531;29;20023;-83
2023/05/07 11:52:21;;;;;;;8.25;5.28;;;16.40;79.50;;;;;;4951371;28;20034;-82
2023/05/07 11:54:54;;;;;;;9.63;5.75;;;16.40;79.50;;;;;;4951716;29;20038;-84
2023/05/07 11:57:20;;;;;;;7.65;5.35;;;16.40;79.50;;;;;;4950867;29;20031;-84
2023/05/07 11:59:49;;;;;;;8.27;5.20;;;16.30;79.50;;;;;;4968139;29;20508;-83
2023/05/07 12:02:15;;;;;;;7.85;5.40;;;16.40;79.60;;;;;;4948519;28;20034;-83
2023/05/07 12:04:41;;;;;;;7.15;4.82;;;16.40;79.60;;;;;;4948457;29;20031;-83
2023/05/07 12:07:15;;;;;;;7.45;5.30;;;16.30;79.60;;;;;;4944626;29;20075;-82
2023/05/07 12:09:45;;;;;;;7.78;5.70;;;16.30;79.70;;;;;;4941557;29;20513;-84
2023/05/07 12:12:12;;;;;;;6.82;4.43;;;16.30;79.70;;;;;;4948065;29;20428;-84
2023/05/07 12:14:42;;;;;;;7.53;5.32;;;16.30;79.80;;;;;;4943796;29;20031;-81
2023/05/07 12:17:12;;;;;;;7.82;5.28;;;16.30;79.80;;;;;;4959142;29;20118;-81
2023/05/07 12:19:39;;;;;;;6.95;4.97;;;16.40;79.90;;;;;;4941762;29;20114;-80
2023/05/07 12:22:07;;;;;;;7.50;5.22;;;16.30;79.90;;;;;;4940681;29;20042;-80
2023/05/07 12:24:49;;;;;;;7.57;5.35;;;16.30;79.90;;;;;;4939450;29;20397;-80
2023/05/07 12:27:16;;;;;;;7.60;5.07;;;16.30;79.90;;;;;;4941269;29;20027;-80
2023/05/07 12:29:47;;;;;;;7.25;4.88;;;16.30;79.90;;;;;;4944054;29;20552;-81
2023/05/07 12:32:17;;;;;;;7.13;4.93;;;16.30;79.90;;;;;;4944076;29;20116;-77
2023/05/07 12:34:43;;;;;;;7.13;4.95;;;16.30;79.90;;;;;;4944810;29;20548;-79
2023/05/07 12:37:09;;;;;;;6.80;4.72;;;16.30;79.90;;;;;;4944714;29;20035;-84
2023/05/07 12:39:35;;;;;;;7.93;5.28;;;16.30;79.90;;;;;;4946819;29;20027;-80
2023/05/07 12:42:01;;;;;;;7.40;5.05;;;16.30;80.00;;;;;;4946204;29;20046;-81
2023/05/07 12:44:34;;;;;;;7.30;4.93;;;16.30;80.00;;;;;;4943492;29;20808;-84
2023/05/07 12:47:03;;;;;;;7.50;5.05;;;16.30;80.00;;;;;;4944894;29;20023;-82
2023/05/07 12:49:28;;;;;;;7.68;5.30;;;16.30;80.00;;;;;;4929032;29;20048;-85
2023/05/07 12:51:55;;;;;;;7.53;4.88;;;16.30;80.10;;;;;;4922345;29;20044;-84
2023/05/07 12:54:34;;;;;;;7.68;4.70;;;16.30;80.20;;;;;;4923224;29;20051;-86
2023/05/07 12:57:07;;;;;;;9.38;5.00;;;16.20;80.40;;;;;;4940574;29;20065;-82
2023/05/07 12:59:35;;;;;;;13.00;5.03;;;16.20;80.70;;;;;;4959208;29;20027;-83
2023/05/07 13:02:00;;;;;;;44.10;7.13;;;16.20;81.80;;;;;;4939969;29;20031;-83
2023/05/07 13:04:25;;;;;;;44.30;7.63;;;16.20;82.10;;;;;;4937588;29;20031;-83
2023/05/07 13:06:51;;;;;;;40.13;7.75;;;16.30;81.80;;;;;;4937657;29;20110;-82
2023/05/07 13:09:16;;;;;;;40.88;7.18;;;16.30;81.90;;;;;;4956766;29;20506;-79
2023/05/07 13:11:42;;;;;;;37.42;6.25;;;16.30;81.80;;;;;;4940446;29;20400;-82
2023/05/07 13:14:08;;;;;;;39.88;7.30;;;16.30;81.70;;;;;;4955397;29;20031;-81
2023/05/07 13:16:33;;;;;;;31.83;6.50;;;16.30;81.60;;;;;;4938143;29;20027;-82
2023/05/07 13:18:59;;;;;;;32.03;7.03;;;16.30;81.50;;;;;;4938032;29;20030;-85
2023/05/07 13:21:25;;;;;;;36.58;6.57;;;16.30;81.50;;;;;;4937515;29;20023;-82
2023/05/07 13:23:50;;;;;;;29.00;6.32;;;16.30;81.50;;;;;;4937795;29;20054;-82
2023/05/07 13:26:16;;;;;;;25.88;6.63;;;16.20;81.40;;;;;;4938179;29;20019;-79
2023/05/07 13:28:41;;;;;;;21.23;5.65;;;16.30;81.30;;;;;;4936694;29;20038;-84
2023/05/07 13:31:07;;;;;;;25.02;5.40;;;16.20;81.30;;;;;;4939172;29;20110;-80
2023/05/07 13:33:32;;;;;;;23.98;6.15;;;16.20;81.20;;;;;;4939115;29;20591;-82
2023/05/07 13:36:00;;;;;;;23.92;6.75;;;16.20;81.20;;;;;;4938659;29;20031;-83
2023/05/07 13:38:25;;;;;;;19.98;5.50;;;16.30;81.20;;;;;;4938200;29;20027;-82
2023/05/07 13:40:51;;;;;;;16.65;5.35;;;16.30;81.20;;;;;;4938038;29;20027;-79
2023/05/07 13:43:18;;;;;;;24.10;5.25;;;16.20;81.10;;;;;;4937867;29;20023;-81
2023/05/07 13:45:44;;;;;;;19.83;4.90;;;16.20;81.00;;;;;;4938807;29;20030;-78
2023/05/07 13:48:09;;;;;;;17.63;5.68;;;16.20;81.00;;;;;;4947871;29;20007;-81
2023/05/07 13:50:35;;;;;;;18.02;5.50;;;16.20;81.00;;;;;;4953703;28;20146;-82
2023/05/07 13:53:01;;;;;;;17.45;5.50;;;16.20;81.10;;;;;;4952608;29;20037;-84
2023/05/07 13:55:28;;;;;;;14.13;5.13;;;16.20;81.10;;;;;;4952709;29;20038;-83
2023/05/07 13:58:02;;;;;;;18.23;5.10;;;16.20;81.10;;;;;;4951510;29;20031;-84
2023/05/07 14:00:29;;;;;;;16.08;4.90;;;16.20;81.10;;;;;;4950510;28;20063;-83
2023/05/07 14:02:56;;;;;;;10.85;4.22;;;16.20;81.10;;;;;;4949097;29;20388;-81
2023/05/07 14:05:24;;;;;;;15.15;4.93;;;16.20;81.10;;;;;;4948600;29;20023;-80
2023/05/07 14:07:51;;;;;;;12.55;4.70;;;16.20;81.20;;;;;;4946198;29;20027;-81
2023/05/07 14:10:17;;;;;;;13.25;5.35;;;16.20;81.30;;;;;;4946028;29;20035;-82
2023/05/07 14:12:44;;;;;;;14.60;4.65;;;16.20;81.20;;;;;;4946837;29;20042;-81
2023/05/07 14:15:10;;;;;;;12.88;4.57;;;16.20;81.30;;;;;;4947071;29;20442;-81
2023/05/07 14:17:35;;;;;;;13.77;5.20;;;16.20;81.30;;;;;;4947926;29;20036;-82
2023/05/07 14:20:01;;;;;;;14.20;4.47;;;16.20;81.40;;;;;;4948234;29;20042;-83
2023/05/07 14:22:26;;;;;;;11.98;4.63;;;16.10;81.40;;;;;;4947348;29;20015;-82
2023/05/07 14:24:52;;;;;;;12.05;5.28;;;16.20;81.50;;;;;;4963452;29;20460;-81
2023/05/07 14:27:18;;;;;;;12.25;4.50;;;16.20;81.50;;;;;;4965574;28;20499;-82
2023/05/07 14:29:45;;;;;;;10.52;4.20;;;16.20;81.50;;;;;;4966068;28;20114;-81
2023/05/07 14:32:10;;;;;;;15.23;4.63;;;16.10;81.50;;;;;;4962600;28;20035;-81
2023/05/07 14:34:36;;;;;;;12.30;4.93;;;16.20;81.60;;;;;;4957939;28;20054;-83
2023/05/07 14:37:01;;;;;;;8.70;4.07;;;16.20;81.60;;;;;;4983569;28;20038;-82
2023/05/07 14:39:28;;;;;;;12.50;4.80;;;16.20;81.60;;;;;;4951782;28;20054;-84
2023/05/07 14:41:55;;;;;;;11.23;4.85;;;16.10;81.60;;;;;;4970944;28;20023;-84
2023/05/07 14:44:21;;;;;;;10.35;4.35;;;16.10;81.60;;;;;;4970761;28;20479;-82
2023/05/07 14:46:47;;;;;;;10.05;4.88;;;16.10;81.60;;;;;;4971025;28;20022;-85
2023/05/07 14:49:16;;;;;;;11.65;4.30;;;16.10;81.60;;;;;;4974097;28;20046;-85
2023/05/07 14:51:46;;;;;;;10.55;4.70;;;16.10;81.60;;;;;;4973066;28;20030;-81
2023/05/07 14:54:12;;;;;;;11.88;4.68;;;16.10;81.60;;;;;;4971923;28;20118;-83
2023/05/07 14:56:38;;;;;;;10.35;4.00;;;16.10;81.70;;;;;;4972217;28;20094;-82
2023/05/07 14:59:03;;;;;;;8.07;4.60;;;16.10;81.60;;;;;;4971058;28;20057;-82
2023/05/07 15:01:29;;;;;;;7.35;4.40;;;16.10;81.60;;;;;;4971680;28;20046;-84
2023/05/07 15:03:55;;;;;;;10.00;4.13;;;16.10;81.60;;;;;;4970250;28;20031;-83
2023/05/07 15:06:21;;;;;;;9.70;4.70;;;16.10;81.60;;;;;;4971444;28;20046;-82
2023/05/07 15:08:47;;;;;;;10.02;4.65;;;16.10;81.60;;;;;;4970521;28;20027;-82
2023/05/07 15:11:12;;;;;;;9.52;4.32;;;16.10;81.60;;;;;;4970226;28;20115;-81
2023/05/07 15:13:38;;;;;;;8.02;4.05;;;16.10;81.60;;;;;;4970002;28;20034;-84
2023/05/07 15:16:03;;;;;;;10.48;4.25;;;16.10;81.60;;;;;;4970164;28;20432;-81
2023/05/07 15:18:29;;;;;;;10.15;4.50;;;16.10;81.60;;;;;;4968872;28;20122;-83
2023/05/07 15:20:56;;;;;;;9.43;4.88;;;16.10;81.60;;;;;;4968578;28;20027;-82
2023/05/07 15:23:22;;;;;;;9.13;4.45;;;16.10;81.70;;;;;;4965438;28;20530;-80
2023/05/07 15:25:47;;;;;;;9.82;3.90;;;16.10;81.60;;;;;;4965316;28;20035;-83
2023/05/07 15:28:13;;;;;;;8.52;4.20;;;16.10;81.60;;;;;;4966773;28;20026;-81
2023/05/07 15:30:38;;;;;;;9.98;4.35;;;16.10;81.60;;;;;;4982981;28;20529;-81
2023/05/07 15:33:04;;;;;;;7.78;4.18;;;16.10;81.60;;;;;;4958887;28;20030;-81
2023/05/07 15:35:30;;;;;;;7.13;3.90;;;16.10;81.60;;;;;;4959607;28;20479;-81
2023/05/07 15:37:55;;;;;;;9.07;4.50;;;16.10;81.60;;;;;;4962945;28;20414;-81
2023/05/07 15:40:21;;;;;;;7.57;4.38;;;16.10;81.60;;;;;;4965812;28;20544;-81